createdAt,value
2019-01-25T00:00:50.831Z,165.40
2019-01-25T00:03:20.414Z,162.87
2019-01-25T00:05:49.820Z,166.50
2019-01-25T00:08:19.425Z,172.30
2019-01-25T00:10:48.806Z,180.43
2019-01-25T00:13:18.358Z,175.87
2019-01-25T00:15:47.874Z,186.13
2019-01-25T00:18:17.276Z,175.53
2019-01-25T00:20:47.046Z,172.93
2019-01-25T00:23:16.554Z,172.83
2019-01-25T00:25:45.956Z,177.90
2019-01-25T00:28:15.442Z,182.80
2019-01-25T00:30:44.888Z,172.07
2019-01-25T00:33:14.404Z,163.70
2019-01-25T00:35:43.966Z,167.67
2019-01-25T00:38:13.467Z,168.07
2019-01-25T00:40:42.926Z,180.67
2019-01-25T00:43:12.517Z,160.20
2019-01-25T00:45:41.986Z,161.90
2019-01-25T00:48:11.390Z,170.67
2019-01-25T00:50:41.031Z,165.00
2019-01-25T00:53:10.501Z,166.47
2019-01-25T00:55:40.078Z,168.03
2019-01-25T00:58:09.701Z,169.30
2019-01-25T01:00:39.342Z,156.60
2019-01-25T01:03:08.868Z,179.40
2019-01-25T01:05:38.362Z,160.33
2019-01-25T01:08:07.970Z,154.20
2019-01-25T01:10:37.394Z,155.77
2019-01-25T01:13:06.789Z,161.90
2019-01-25T01:15:36.338Z,176.67
2019-01-25T01:18:05.759Z,161.07
2019-01-25T01:20:35.139Z,156.23
2019-01-25T01:23:04.718Z,159.07
2019-01-25T01:25:34.124Z,152.03
2019-01-25T01:28:03.621Z,164.03
2019-01-25T01:30:33.074Z,179.30
2019-01-25T01:33:02.537Z,175.93
2019-01-25T01:35:32.116Z,180.33
2019-01-25T01:38:01.599Z,182.70
2019-01-25T01:40:31.076Z,197.73
2019-01-25T01:43:00.593Z,201.37
2019-01-25T01:45:30.141Z,218.37
2019-01-25T01:47:59.616Z,221.20
2019-01-25T01:50:28.998Z,212.23
2019-01-25T01:52:58.506Z,197.30
2019-01-25T01:55:27.896Z,197.90
2019-01-25T01:57:57.437Z,199.33
2019-01-25T02:00:27.420Z,203.37
2019-01-25T02:02:56.984Z,192.90
2019-01-25T02:05:26.519Z,195.87
2019-01-25T02:07:56.198Z,196.37
2019-01-25T02:10:29.472Z,201.63
2019-01-25T02:12:57.585Z,203.83
2019-01-25T02:15:27.132Z,196.50
2019-01-25T02:17:56.651Z,188.77
2019-01-25T02:20:27.942Z,195.33
2019-01-25T02:22:57.301Z,187.43
2019-01-25T02:25:26.724Z,184.73
2019-01-25T02:27:56.266Z,177.40
2019-01-25T02:30:26.526Z,178.67
2019-01-25T02:32:56.000Z,200.40
2019-01-25T02:35:25.563Z,191.13
2019-01-25T02:37:55.168Z,193.73
2019-01-25T02:40:24.994Z,195.53
2019-01-25T02:42:54.574Z,218.77
2019-01-25T02:45:24.228Z,200.57
2019-01-25T02:47:53.708Z,260.57
2019-01-25T02:50:23.114Z,240.47
2019-01-25T02:52:52.524Z,220.30
2019-01-25T02:55:22.010Z,205.03
2019-01-25T02:57:51.562Z,209.93
2019-01-25T03:00:25.255Z,205.40
2019-01-25T03:02:55.126Z,241.70
2019-01-25T03:05:24.906Z,243.17
2019-01-25T03:07:54.636Z,236.63
2019-01-25T03:10:28.979Z,247.33
2019-01-25T03:12:55.400Z,244.50
2019-01-25T03:15:26.130Z,276.13
2019-01-25T03:17:55.617Z,260.63
2019-01-25T03:20:25.448Z,299.80
2019-01-25T03:22:55.012Z,350.47
2019-01-25T03:25:26.200Z,314.77
2019-01-25T03:27:55.712Z,319.97
2019-01-25T03:30:26.143Z,320.87
2019-01-25T03:32:55.689Z,311.30
2019-01-25T03:35:26.288Z,324.20
2019-01-25T03:37:55.949Z,307.33
2019-01-25T03:40:27.328Z,318.63
2019-01-25T03:42:57.104Z,304.57
2019-01-25T03:45:26.717Z,313.57
2019-01-25T03:47:56.322Z,350.87
2019-01-25T03:50:27.783Z,378.03
2019-01-25T03:52:57.552Z,386.57
2019-01-25T03:55:27.348Z,425.87
2019-01-25T03:57:56.864Z,341.80
2019-01-25T04:00:30.237Z,367.23
2019-01-25T04:02:59.809Z,367.87
2019-01-25T04:05:29.348Z,323.60
2019-01-25T04:07:58.814Z,349.20
2019-01-25T04:10:28.899Z,340.00
2019-01-25T04:12:58.525Z,374.30
2019-01-25T04:15:30.767Z,396.77
2019-01-25T04:18:00.212Z,342.00
2019-01-25T04:20:30.013Z,376.60
2019-01-25T04:22:59.544Z,332.27
2019-01-25T04:25:29.075Z,468.37
2019-01-25T04:27:58.530Z,404.93
2019-01-25T04:30:29.940Z,410.90
2019-01-25T04:33:00.243Z,446.83
2019-01-25T04:35:29.812Z,376.00
2019-01-25T04:37:59.317Z,439.40
2019-01-25T04:40:28.817Z,390.43
2019-01-25T04:42:58.283Z,393.03
2019-01-25T04:45:27.689Z,370.70
2019-01-25T04:47:57.168Z,392.00
2019-01-25T04:50:26.850Z,430.67
2019-01-25T04:52:56.383Z,434.30
2019-01-25T04:55:28.311Z,404.60
2019-01-25T04:58:06.480Z,364.13
2019-01-25T05:00:35.881Z,362.33
2019-01-25T05:03:05.723Z,373.73
2019-01-25T05:05:35.242Z,356.80
2019-01-25T05:08:10.698Z,352.03
2019-01-25T05:10:40.251Z,314.43
2019-01-25T05:13:09.700Z,292.47
2019-01-25T05:15:39.112Z,292.10
2019-01-25T05:18:08.792Z,297.73
2019-01-25T05:20:38.246Z,288.37
2019-01-25T05:23:09.234Z,266.73
2019-01-25T05:25:38.677Z,274.30
2019-01-25T05:28:15.844Z,269.83
2019-01-25T05:30:57.017Z,254.17
2019-01-25T05:33:26.512Z,257.80
2019-01-25T05:35:55.926Z,269.20
2019-01-25T05:38:25.476Z,238.63
2019-01-25T05:40:55.049Z,239.63
2019-01-25T05:43:24.441Z,235.80
2019-01-25T05:45:53.919Z,230.27
2019-01-25T05:48:26.711Z,251.50
2019-01-25T05:50:59.238Z,230.63
2019-01-25T05:53:28.640Z,225.03
2019-01-25T05:55:58.252Z,223.93
2019-01-25T05:58:27.761Z,235.83
2019-01-25T06:00:57.312Z,218.07
2019-01-25T06:03:26.853Z,218.70
2019-01-25T06:05:59.452Z,218.23
2019-01-25T06:08:29.696Z,222.03
2019-01-25T06:11:01.167Z,225.97
2019-01-25T06:13:30.967Z,210.10
2019-01-25T06:16:00.473Z,209.73
2019-01-25T06:18:29.938Z,205.80
2019-01-25T06:20:59.834Z,201.13
2019-01-25T06:23:29.429Z,215.27
2019-01-25T06:25:59.829Z,202.73
2019-01-25T06:28:29.415Z,176.90
2019-01-25T06:30:58.841Z,192.73
2019-01-25T06:33:28.315Z,199.57
2019-01-25T06:35:57.817Z,180.43
2019-01-25T06:38:27.373Z,184.20
2019-01-25T06:40:56.882Z,185.33
2019-01-25T06:43:26.286Z,173.50
2019-01-25T06:45:55.797Z,188.23
2019-01-25T06:48:25.305Z,171.27
2019-01-25T06:50:54.707Z,162.80
2019-01-25T06:53:24.149Z,186.97
2019-01-25T06:55:53.555Z,169.60
2019-01-25T06:58:27.611Z,170.27
2019-01-25T07:00:58.634Z,169.77
2019-01-25T07:03:28.299Z,167.30
2019-01-25T07:05:57.775Z,169.43
2019-01-25T07:08:27.344Z,173.20
2019-01-25T07:10:56.829Z,170.53
2019-01-25T07:13:26.279Z,168.80
2019-01-25T07:15:55.797Z,161.53
2019-01-25T07:18:25.195Z,145.80
2019-01-25T07:20:54.625Z,149.87
2019-01-25T07:23:24.039Z,166.83
2019-01-25T07:25:53.454Z,160.50
2019-01-25T07:28:22.945Z,160.53
2019-01-25T07:30:52.337Z,149.50
2019-01-25T07:33:21.983Z,152.70
2019-01-25T07:35:51.670Z,150.10
2019-01-25T07:38:21.464Z,159.83
2019-01-25T07:40:50.846Z,154.73
2019-01-25T07:43:20.342Z,143.93
2019-01-25T07:45:49.761Z,151.33
2019-01-25T07:48:19.244Z,156.93
2019-01-25T07:50:48.801Z,151.70
2019-01-25T07:53:18.365Z,149.67
2019-01-25T07:55:47.784Z,143.67
2019-01-25T07:58:17.315Z,142.17
2019-01-25T08:00:47.044Z,147.43
2019-01-25T08:03:16.529Z,141.87
2019-01-25T08:05:46.238Z,136.30
2019-01-25T08:08:15.548Z,139.93
2019-01-25T08:10:45.025Z,130.77
2019-01-25T08:13:14.585Z,137.23
2019-01-25T08:15:44.216Z,128.73
2019-01-25T08:18:13.617Z,135.27
2019-01-25T08:20:43.234Z,127.10
2019-01-25T08:23:12.910Z,132.00
2019-01-25T08:25:42.490Z,137.13
2019-01-25T08:28:12.059Z,130.87
2019-01-25T08:30:41.523Z,139.10
2019-01-25T08:33:10.863Z,140.90
2019-01-25T08:35:40.428Z,131.80
2019-01-25T08:38:09.911Z,136.47
2019-01-25T08:40:39.394Z,131.00
2019-01-25T08:43:09.091Z,139.00
2019-01-25T08:45:38.610Z,140.40
2019-01-25T08:48:08.218Z,139.60
2019-01-25T08:50:37.835Z,152.63
2019-01-25T08:53:07.456Z,130.53
2019-01-25T08:55:36.971Z,147.37
2019-01-25T08:58:06.590Z,149.63
2019-01-25T09:00:36.248Z,139.67
2019-01-25T09:03:05.779Z,145.20
2019-01-25T09:05:35.179Z,130.00
2019-01-25T09:08:04.831Z,127.33
2019-01-25T09:10:34.390Z,140.47
2019-01-25T09:13:03.993Z,132.63
2019-01-25T09:15:35.103Z,142.57
2019-01-25T09:18:04.863Z,143.30
2019-01-25T09:20:34.480Z,130.57
2019-01-25T09:23:04.051Z,124.50
2019-01-25T09:25:33.503Z,124.40
2019-01-25T09:28:03.111Z,122.50
2019-01-25T09:30:32.576Z,123.67
2019-01-25T09:33:02.061Z,115.37
2019-01-25T09:35:31.620Z,116.57
2019-01-25T09:38:01.188Z,99.47
2019-01-25T09:40:30.681Z,116.67
2019-01-25T09:43:00.248Z,107.20
2019-01-25T09:45:29.963Z,98.27
2019-01-25T09:47:59.684Z,99.30
2019-01-25T09:50:29.244Z,97.37
2019-01-25T09:52:58.736Z,93.57
2019-01-25T09:55:28.241Z,95.13
2019-01-25T09:58:03.893Z,82.53
2019-01-25T10:00:42.215Z,86.30
2019-01-25T10:03:11.698Z,87.57
2019-01-25T10:05:41.291Z,83.53
2019-01-25T10:08:10.711Z,93.33
2019-01-25T10:10:40.295Z,86.80
2019-01-25T10:13:09.769Z,87.60
2019-01-25T10:15:40.901Z,81.47
2019-01-25T10:18:10.583Z,88.73
2019-01-25T10:20:40.209Z,83.87
2019-01-25T10:23:09.595Z,88.13
2019-01-25T10:25:39.665Z,87.23
2019-01-25T10:28:09.329Z,99.17
2019-01-25T10:30:38.820Z,91.87
2019-01-25T10:33:08.366Z,88.87
2019-01-25T10:35:37.893Z,96.83
2019-01-25T10:38:07.395Z,99.80
2019-01-25T10:40:36.961Z,91.10
2019-01-25T10:43:06.466Z,102.60
2019-01-25T10:45:41.610Z,97.90
2019-01-25T10:48:11.271Z,92.67
2019-01-25T10:50:40.746Z,94.27
2019-01-25T10:53:10.160Z,98.20
2019-01-25T10:55:39.771Z,107.47
2019-01-25T10:58:09.619Z,101.50
2019-01-25T11:00:39.143Z,100.70
2019-01-25T11:03:08.672Z,104.67
2019-01-25T11:05:38.216Z,106.23
2019-01-25T11:08:07.699Z,109.73
2019-01-25T11:10:37.240Z,107.47
2019-01-25T11:13:06.802Z,114.17
2019-01-25T11:15:36.315Z,115.43
2019-01-25T11:18:05.947Z,125.63
2019-01-25T11:20:35.447Z,122.47
2019-01-25T11:23:05.069Z,125.33
2019-01-25T11:25:37.404Z,114.20
2019-01-25T11:28:06.863Z,119.50
2019-01-25T11:30:36.542Z,111.50
2019-01-25T11:33:06.190Z,104.10
2019-01-25T11:35:35.693Z,111.97
2019-01-25T11:38:05.361Z,98.63
2019-01-25T11:40:40.264Z,103.53
2019-01-25T11:43:09.752Z,102.30
2019-01-25T11:45:39.199Z,100.60
2019-01-25T11:48:13.442Z,100.17
2019-01-25T11:50:42.819Z,104.43
2019-01-25T11:53:12.392Z,99.67
2019-01-25T11:55:41.922Z,93.53
2019-01-25T11:58:11.390Z,95.37
2019-01-25T12:00:43.025Z,104.47
2019-01-25T12:03:13.718Z,96.83
2019-01-25T12:05:43.429Z,112.33
2019-01-25T12:08:12.995Z,105.77
2019-01-25T12:10:43.502Z,102.57
2019-01-25T12:13:16.277Z,101.03
2019-01-25T12:15:45.919Z,103.77
2019-01-25T12:18:16.324Z,98.53
2019-01-25T12:20:45.787Z,106.60
2019-01-25T12:23:15.337Z,111.43
2019-01-25T12:25:44.820Z,102.77
2019-01-25T12:28:14.299Z,100.47
2019-01-25T12:30:43.859Z,101.07
2019-01-25T12:33:13.360Z,101.50
2019-01-25T12:35:43.062Z,99.37
2019-01-25T12:38:12.516Z,92.00
2019-01-25T12:40:42.772Z,103.30
2019-01-25T12:43:12.312Z,101.73
2019-01-25T12:45:41.892Z,93.03
2019-01-25T12:48:11.432Z,97.23
2019-01-25T12:50:49.022Z,105.07
2019-01-25T12:53:18.491Z,102.47
2019-01-25T12:55:48.077Z,110.27
2019-01-25T12:58:17.597Z,109.50
2019-01-25T13:00:47.120Z,111.23
2019-01-25T13:03:16.600Z,99.80
2019-01-25T13:05:46.075Z,99.57
2019-01-25T13:08:15.570Z,108.00
2019-01-25T13:10:45.076Z,100.20
2019-01-25T13:13:14.694Z,117.87
2019-01-25T13:15:44.165Z,97.50
2019-01-25T13:18:15.388Z,102.43
2019-01-25T13:20:44.802Z,108.73
2019-01-25T13:23:14.273Z,108.93
2019-01-25T13:25:47.278Z,108.03
2019-01-25T13:28:14.762Z,108.33
2019-01-25T13:30:44.264Z,101.63
2019-01-25T13:33:13.834Z,118.60
2019-01-25T13:35:43.230Z,118.37
2019-01-25T13:38:12.684Z,110.27
2019-01-25T13:40:42.104Z,117.47
2019-01-25T13:43:11.680Z,117.20
2019-01-25T13:45:41.168Z,127.60
2019-01-25T13:48:10.667Z,109.50
2019-01-25T13:50:40.254Z,108.60
2019-01-25T13:53:09.690Z,105.90
2019-01-25T13:55:39.250Z,115.47
2019-01-25T13:58:08.828Z,111.50
2019-01-25T14:00:38.400Z,112.07
2019-01-25T14:03:07.881Z,107.70
2019-01-25T14:05:37.374Z,109.67
2019-01-25T14:08:06.858Z,113.57
2019-01-25T14:10:37.021Z,114.80
2019-01-25T14:13:06.848Z,112.33
2019-01-25T14:15:36.378Z,112.57
2019-01-25T14:18:06.390Z,110.23
2019-01-25T14:20:35.832Z,107.93
2019-01-25T14:23:05.972Z,112.30
2019-01-25T14:25:35.495Z,117.37
2019-01-25T14:28:05.184Z,111.07
2019-01-25T14:30:40.009Z,113.13
2019-01-25T14:33:09.526Z,109.60
2019-01-25T14:35:39.142Z,107.47
2019-01-25T14:38:09.344Z,120.00
2019-01-25T14:40:38.986Z,113.50
2019-01-25T14:43:08.429Z,106.57
2019-01-25T14:45:37.903Z,97.33
2019-01-25T14:48:07.589Z,97.30
2019-01-25T14:50:37.082Z,109.50
2019-01-25T14:53:06.912Z,106.90
2019-01-25T14:55:36.438Z,98.80
2019-01-25T14:58:06.195Z,100.50
2019-01-25T15:00:35.764Z,98.80
2019-01-25T15:03:05.654Z,98.03
2019-01-25T15:05:35.134Z,102.90
2019-01-25T15:08:04.855Z,90.80
2019-01-25T15:10:35.137Z,104.73
2019-01-25T15:13:05.952Z,84.30
2019-01-25T15:15:35.434Z,105.27
2019-01-25T15:18:05.186Z,99.87
2019-01-25T15:20:34.642Z,110.57
2019-01-25T15:23:04.282Z,109.63
2019-01-25T15:25:33.769Z,94.40
2019-01-25T15:28:03.219Z,87.23
2019-01-25T15:30:33.202Z,90.40
2019-01-25T15:33:02.659Z,95.13
2019-01-25T15:35:32.208Z,105.03
2019-01-25T15:38:01.712Z,81.10
2019-01-25T15:40:31.369Z,88.63
2019-01-25T15:43:00.903Z,94.80
2019-01-25T15:45:30.539Z,92.30
2019-01-25T15:48:00.584Z,86.13
2019-01-25T15:50:31.338Z,94.43
2019-01-25T15:53:00.886Z,92.67
2019-01-25T15:55:30.591Z,87.07
2019-01-25T15:58:00.122Z,106.13
2019-01-25T16:00:29.974Z,94.13
2019-01-25T16:02:59.552Z,100.83
2019-01-25T16:05:29.122Z,97.17
2019-01-25T16:07:58.597Z,89.47
2019-01-25T16:10:28.148Z,88.40
2019-01-25T16:12:57.570Z,85.33
2019-01-25T16:15:28.673Z,90.93
2019-01-25T16:17:58.272Z,92.93
2019-01-25T16:20:27.672Z,89.00
2019-01-25T16:22:57.384Z,88.10
2019-01-25T16:25:31.625Z,85.07
2019-01-25T16:28:01.067Z,86.87
2019-01-25T16:30:32.980Z,88.10
2019-01-25T16:33:02.611Z,87.50
2019-01-25T16:35:32.327Z,91.80
2019-01-25T16:38:02.087Z,69.80
2019-01-25T16:40:32.182Z,78.63
2019-01-25T16:43:01.741Z,79.83
2019-01-25T16:45:39.351Z,70.90
2019-01-25T16:48:09.409Z,72.10
2019-01-25T16:50:39.868Z,73.73
2019-01-25T16:53:10.234Z,84.07
2019-01-25T16:55:39.826Z,74.20
2019-01-25T16:58:09.471Z,75.67
2019-01-25T17:00:41.104Z,68.13
2019-01-25T17:03:10.710Z,72.40
2019-01-25T17:05:41.179Z,62.70
2019-01-25T17:08:10.744Z,69.93
2019-01-25T17:10:41.174Z,63.30
2019-01-25T17:13:10.738Z,69.30
2019-01-25T17:15:40.361Z,66.10
2019-01-25T17:18:10.003Z,63.37
2019-01-25T17:20:39.676Z,67.07
2019-01-25T17:23:09.167Z,69.60
2019-01-25T17:25:38.621Z,65.10
2019-01-25T17:28:08.174Z,65.03
2019-01-25T17:30:38.586Z,64.67
2019-01-25T17:33:08.019Z,71.50
2019-01-25T17:35:39.409Z,66.20
2019-01-25T17:38:08.895Z,66.10
2019-01-25T17:40:46.756Z,68.70
2019-01-25T17:43:14.229Z,70.10
2019-01-25T17:45:43.735Z,72.63
2019-01-25T17:48:13.199Z,76.57
2019-01-25T17:50:42.741Z,75.43
2019-01-25T17:53:12.309Z,77.57
2019-01-25T17:55:41.795Z,66.87
2019-01-25T17:58:11.335Z,69.10
2019-01-25T18:00:42.443Z,65.73
2019-01-25T18:03:12.091Z,65.33
2019-01-25T18:05:41.605Z,65.33
2019-01-25T18:08:10.983Z,60.00
2019-01-25T18:10:40.461Z,59.60
2019-01-25T18:13:09.943Z,58.60
2019-01-25T18:15:39.775Z,63.37
2019-01-25T18:18:09.607Z,62.47
2019-01-25T18:20:39.137Z,53.33
2019-01-25T18:23:08.675Z,53.83
2019-01-25T18:25:43.610Z,56.37
2019-01-25T18:28:16.069Z,58.60
2019-01-25T18:30:54.428Z,57.53
2019-01-25T18:33:23.889Z,60.40
2019-01-25T18:35:53.425Z,64.93
2019-01-25T18:38:22.878Z,59.37
2019-01-25T18:40:52.493Z,60.33
2019-01-25T18:43:21.918Z,63.83
2019-01-25T18:45:51.476Z,63.20
2019-01-25T18:48:21.149Z,70.93
2019-01-25T18:50:50.739Z,70.10
2019-01-25T18:53:20.141Z,77.03
2019-01-25T18:55:49.767Z,75.63
2019-01-25T18:58:19.230Z,76.47
2019-01-25T19:00:48.729Z,84.20
2019-01-25T19:03:18.090Z,75.93
2019-01-25T19:05:47.551Z,74.93
2019-01-25T19:08:16.988Z,71.50
2019-01-25T19:10:46.444Z,75.93
2019-01-25T19:13:15.915Z,74.87
2019-01-25T19:15:45.395Z,76.97
2019-01-25T19:18:14.889Z,79.57
2019-01-25T19:20:44.438Z,81.67
2019-01-25T19:23:13.976Z,70.33
2019-01-25T19:25:43.425Z,69.77
2019-01-25T19:28:12.937Z,75.37
2019-01-25T19:30:44.889Z,70.83
2019-01-25T19:33:14.370Z,69.73
2019-01-25T19:35:44.003Z,73.57
2019-01-25T19:38:13.949Z,66.83
2019-01-25T19:40:43.513Z,69.80
2019-01-25T19:43:12.984Z,66.73
2019-01-25T19:45:42.597Z,63.97
2019-01-25T19:48:11.975Z,63.60
2019-01-25T19:50:41.375Z,66.60
2019-01-25T19:53:11.103Z,69.70
2019-01-25T19:55:40.628Z,60.73
2019-01-25T19:58:12.647Z,66.90
2019-01-25T20:00:46.685Z,65.87
2019-01-25T20:03:16.098Z,63.03
2019-01-25T20:05:45.653Z,61.43
2019-01-25T20:08:15.030Z,60.60
2019-01-25T20:10:44.612Z,62.87
2019-01-25T20:13:14.004Z,64.23
2019-01-25T20:15:43.588Z,61.60
2019-01-25T20:18:13.084Z,57.00
2019-01-25T20:20:42.600Z,57.30
2019-01-25T20:23:12.156Z,51.50
2019-01-25T20:25:41.786Z,51.37
2019-01-25T20:28:12.014Z,53.73
2019-01-25T20:30:41.627Z,54.03
2019-01-25T20:33:10.986Z,52.57
2019-01-25T20:35:42.670Z,53.07
2019-01-25T20:38:12.377Z,54.80
2019-01-25T20:40:42.086Z,52.57
2019-01-25T20:43:13.000Z,51.70
2019-01-25T20:45:43.168Z,52.73
2019-01-25T20:48:12.687Z,53.30
2019-01-25T20:50:42.175Z,52.50
2019-01-25T20:53:13.585Z,55.73
2019-01-25T20:55:43.520Z,55.40
2019-01-25T20:58:13.032Z,56.37
2019-01-25T21:00:42.462Z,55.23
2019-01-25T21:03:14.334Z,53.23
2019-01-25T21:05:43.867Z,54.60
2019-01-25T21:08:13.248Z,54.00
2019-01-25T21:10:42.818Z,57.13
2019-01-25T21:13:12.246Z,55.73
2019-01-25T21:15:41.851Z,55.60
2019-01-25T21:18:11.575Z,55.33
2019-01-25T21:20:43.059Z,62.70
2019-01-25T21:23:12.580Z,62.47
2019-01-25T21:25:42.129Z,60.73
2019-01-25T21:28:11.608Z,70.50
2019-01-25T21:30:41.175Z,64.33
2019-01-25T21:33:10.813Z,65.77
2019-01-25T21:35:40.299Z,59.07
2019-01-25T21:38:09.737Z,66.10
2019-01-25T21:40:39.242Z,62.17
2019-01-25T21:43:08.724Z,64.03
2019-01-25T21:45:42.962Z,66.83
2019-01-25T21:48:09.629Z,67.17
2019-01-25T21:50:41.754Z,62.57
2019-01-25T21:53:11.294Z,63.73
2019-01-25T21:55:41.034Z,69.73
2019-01-25T21:58:10.541Z,68.03
2019-01-25T22:00:39.902Z,63.50
2019-01-25T22:03:09.477Z,66.17
2019-01-25T22:05:38.978Z,64.73
2019-01-25T22:08:08.524Z,66.87
2019-01-25T22:10:40.574Z,71.03
2019-01-25T22:13:10.014Z,80.73
2019-01-25T22:15:39.488Z,68.50
2019-01-25T22:18:09.032Z,74.30
2019-01-25T22:20:38.806Z,69.43
2019-01-25T22:23:08.315Z,70.17
2019-01-25T22:25:37.693Z,78.13
2019-01-25T22:28:07.171Z,81.00
2019-01-25T22:30:36.638Z,76.83
2019-01-25T22:33:06.114Z,73.13
2019-01-25T22:35:35.557Z,73.60
2019-01-25T22:38:05.101Z,72.63
2019-01-25T22:40:34.653Z,81.17
2019-01-25T22:43:05.460Z,84.30
2019-01-25T22:45:35.128Z,81.53
2019-01-25T22:48:05.357Z,76.67
2019-01-25T22:50:35.002Z,85.07
2019-01-25T22:53:04.536Z,81.17
2019-01-25T22:55:34.108Z,90.17
2019-01-25T22:58:03.678Z,86.77
2019-01-25T23:00:58.688Z,93.80
2019-01-25T23:03:33.933Z,84.47
2019-01-25T23:06:27.214Z,82.93
2019-01-25T23:08:59.944Z,92.80
2019-01-25T23:11:29.405Z,98.13
2019-01-25T23:13:58.877Z,101.90
2019-01-25T23:16:28.410Z,102.17
2019-01-25T23:18:57.971Z,92.77
2019-01-25T23:21:27.497Z,101.17
2019-01-25T23:23:57.663Z,111.53
2019-01-25T23:26:27.162Z,107.30
2019-01-25T23:28:56.668Z,99.77
2019-01-25T23:31:26.260Z,106.90
2019-01-25T23:33:55.734Z,109.10
2019-01-25T23:36:26.223Z,102.27
2019-01-25T23:38:55.721Z,110.30
2019-01-25T23:41:25.140Z,116.20
2019-01-25T23:43:54.638Z,117.77
2019-01-25T23:46:24.246Z,111.50
2019-01-25T23:48:53.714Z,113.63
2019-01-25T23:51:23.253Z,108.60
2019-01-25T23:53:52.811Z,120.30
2019-01-25T23:56:22.300Z,121.07
2019-01-25T23:58:51.792Z,131.17
